Time;durP1;ratioP1;P1;durP2;ratioP2;P2;SDS_P1;SDS_P2;PMS_P1;PMS_P2;Temp;Humidity;BMP_temperature;BMP_pressure;BME280_temperature;BME280_humidity;BME280_pressure;Samples;Min_cycle;Max_cycle;Signal;HPM_P1;HPM_P2
2023/03/22 00:00:27;;;;;;;27.15;22.20;;;;;;;;;;5064553;28;20430;-82
2023/03/22 00:02:56;;;;;;;26.88;22.45;;;;;;;;;;5063518;28;20920;-80
2023/03/22 00:05:23;;;;;;;29.20;23.00;;;;;;;;;;5062455;28;20856;-80
2023/03/22 00:07:53;;;;;;;27.33;21.60;;;;;;;;;;5064589;28;20435;-80
2023/03/22 00:10:19;;;;;;;31.07;23.57;;;;;;;;;;5062472;28;20594;-80
2023/03/22 00:12:45;;;;;;;29.70;22.95;;;;;;;;;;5064305;28;20555;-80
2023/03/22 00:15:12;;;;;;;27.60;23.63;;;;;;;;;;5062634;28;20452;-80
2023/03/22 00:17:38;;;;;;;29.50;23.52;;;;;;;;;;5063389;28;20914;-80
2023/03/22 00:20:07;;;;;;;30.47;23.17;;;;;;;;;;5063659;28;21011;-80
2023/03/22 00:22:33;;;;;;;29.80;24.17;;;;;;;;;;5064939;28;20948;-80
2023/03/22 00:25:00;;;;;;;30.58;23.35;;;;;;;;;;5065180;28;20412;-80
2023/03/22 00:27:28;;;;;;;30.20;24.00;;;;;;;;;;5061440;28;20794;-80
2023/03/22 00:29:54;;;;;;;30.58;23.75;;;;;;;;;;5064118;28;20448;-80
2023/03/22 00:32:20;;;;;;;31.08;23.92;;;;;;;;;;5061277;28;20429;-80
2023/03/22 00:34:47;;;;;;;29.50;24.63;;;;;;;;;;5062359;28;20459;-80
2023/03/22 00:37:16;;;;;;;32.33;24.70;;;;;;;;;;5059312;28;20429;-80
2023/03/22 00:39:44;;;;;;;33.60;25.38;;;;;;;;;;5061215;28;20421;-80
2023/03/22 00:42:10;;;;;;;32.67;24.58;;;;;;;;;;5061776;28;20408;-80
2023/03/22 00:44:37;;;;;;;29.97;24.40;;;;;;;;;;5061396;28;20415;-80
2023/03/22 00:47:03;;;;;;;34.00;24.90;;;;;;;;;;5064617;28;20458;-82
2023/03/22 00:49:30;;;;;;;29.55;24.80;;;;;;;;;;5060268;28;20498;-80
2023/03/22 00:51:56;;;;;;;32.83;24.92;;;;;;;;;;5059692;28;20437;-82
2023/03/22 00:54:24;;;;;;;33.85;25.50;;;;;;;;;;5063616;28;20418;-80
2023/03/22 00:56:50;;;;;;;31.27;26.10;;;;;;;;;;5064437;28;20419;-82
2023/03/22 00:59:17;;;;;;;30.33;24.92;;;;;;;;;;5062352;28;20438;-80
2023/03/22 01:01:43;;;;;;;33.63;25.83;;;;;;;;;;5064077;28;20448;-82
2023/03/22 01:04:14;;;;;;;31.88;26.17;;;;;;;;;;5066891;28;20430;-80
2023/03/22 01:06:40;;;;;;;30.60;24.37;;;;;;;;;;5063844;28;20427;-81
2023/03/22 01:09:07;;;;;;;34.03;25.65;;;;;;;;;;5066055;28;20919;-80
2023/03/22 01:11:34;;;;;;;34.47;26.20;;;;;;;;;;5064269;28;20429;-80
2023/03/22 01:14:02;;;;;;;34.30;25.60;;;;;;;;;;5067492;28;20408;-80
2023/03/22 01:16:28;;;;;;;35.53;25.15;;;;;;;;;;5063975;28;20445;-80
2023/03/22 01:18:55;;;;;;;35.15;25.42;;;;;;;;;;5066781;28;20469;-80
2023/03/22 01:21:21;;;;;;;33.80;26.70;;;;;;;;;;5066993;28;20446;-80
2023/03/22 01:23:48;;;;;;;33.17;26.10;;;;;;;;;;5066955;28;20427;-80
2023/03/22 01:26:14;;;;;;;34.40;26.77;;;;;;;;;;5067123;28;20423;-80
2023/03/22 01:28:42;;;;;;;32.42;25.80;;;;;;;;;;5068174;28;20497;-80
2023/03/22 01:31:08;;;;;;;35.70;26.17;;;;;;;;;;5065489;28;20427;-80
2023/03/22 01:33:35;;;;;;;30.52;25.20;;;;;;;;;;5063129;28;20424;-80
2023/03/22 01:36:01;;;;;;;30.33;25.25;;;;;;;;;;5063059;28;20440;-80
2023/03/22 01:38:28;;;;;;;31.55;24.90;;;;;;;;;;5063983;28;20433;-80
2023/03/22 01:40:56;;;;;;;32.78;25.95;;;;;;;;;;5063232;28;20443;-80
2023/03/22 01:43:22;;;;;;;32.10;25.55;;;;;;;;;;5067037;28;20436;-81
2023/03/22 01:45:50;;;;;;;33.67;26.10;;;;;;;;;;5065116;28;20424;-81
2023/03/22 01:48:24;;;;;;;32.10;26.15;;;;;;;;;;5066156;28;20440;-80
2023/03/22 01:50:58;;;;;;;34.25;25.83;;;;;;;;;;5064586;28;20788;-80
2023/03/22 01:53:26;;;;;;;34.53;25.38;;;;;;;;;;5065557;28;20427;-80
2023/03/22 01:55:53;;;;;;;31.30;26.23;;;;;;;;;;5063700;28;20410;-81
2023/03/22 01:58:20;;;;;;;31.60;24.40;;;;;;;;;;5066675;28;20432;-80
2023/03/22 02:00:47;;;;;;;29.92;24.13;;;;;;;;;;5064075;28;20790;-80
2023/03/22 02:03:17;;;;;;;28.27;23.20;;;;;;;;;;5061405;28;21054;-80
2023/03/22 02:05:44;;;;;;;30.95;23.55;;;;;;;;;;5059397;28;20922;-79
2023/03/22 02:08:13;;;;;;;30.27;23.90;;;;;;;;;;5064067;28;20484;-82
2023/03/22 02:10:40;;;;;;;31.00;24.95;;;;;;;;;;5065154;28;20424;-82
2023/03/22 02:13:13;;;;;;;32.67;25.27;;;;;;;;;;5062428;28;20938;-80
2023/03/22 02:15:41;;;;;;;34.55;26.08;;;;;;;;;;5062781;28;20827;-80
2023/03/22 02:18:18;;;;;;;32.35;24.73;;;;;;;;;;5064181;28;20419;-80
2023/03/22 02:20:58;;;;;;;34.33;25.80;;;;;;;;;;5063188;28;20451;-80
2023/03/22 02:23:52;;;;;;;30.10;24.77;;;;;;;;;;5066965;28;20432;-80
2023/03/22 02:26:42;;;;;;;32.77;24.87;;;;;;;;;;5062203;28;20420;-80
2023/03/22 02:29:12;;;;;;;30.83;23.63;;;;;;;;;;5063809;28;20420;-81
2023/03/22 02:31:49;;;;;;;30.15;23.80;;;;;;;;;;5065706;28;20793;-80
2023/03/22 02:34:36;;;;;;;28.25;22.98;;;;;;;;;;5061929;28;20416;-80
2023/03/22 02:37:21;;;;;;;30.60;21.97;;;;;;;;;;5039546;28;20423;-80
2023/03/22 02:39:50;;;;;;;31.05;22.05;;;;;;;;;;5063385;28;20430;-81
2023/03/22 02:42:23;;;;;;;31.25;22.45;;;;;;;;;;5063827;28;20433;-81
2023/03/22 02:44:55;;;;;;;28.60;21.60;;;;;;;;;;5060780;28;20425;-81
2023/03/22 02:47:24;;;;;;;29.48;21.33;;;;;;;;;;5064757;28;20415;-81
2023/03/22 02:49:54;;;;;;;27.50;22.00;;;;;;;;;;5062411;28;20412;-82
2023/03/22 02:52:26;;;;;;;27.65;20.58;;;;;;;;;;5063444;28;20441;-82
2023/03/22 02:54:56;;;;;;;24.95;20.73;;;;;;;;;;5065549;28;20434;-81
2023/03/22 02:57:26;;;;;;;25.27;20.10;;;;;;;;;;5062471;28;20448;-81
2023/03/22 02:59:54;;;;;;;26.30;20.20;;;;;;;;;;5066552;28;20425;-81
2023/03/22 03:02:21;;;;;;;27.70;19.40;;;;;;;;;;5063474;28;20505;-81
2023/03/22 03:04:50;;;;;;;26.30;19.65;;;;;;;;;;5063241;28;20430;-81
2023/03/22 03:07:17;;;;;;;23.17;17.60;;;;;;;;;;5061574;28;20436;-81
2023/03/22 03:09:44;;;;;;;23.85;17.98;;;;;;;;;;5065604;28;20416;-81
2023/03/22 03:12:17;;;;;;;22.42;17.75;;;;;;;;;;5061113;28;20433;-81
2023/03/22 03:14:44;;;;;;;21.65;17.15;;;;;;;;;;5061243;28;20421;-81
2023/03/22 03:17:12;;;;;;;19.25;16.67;;;;;;;;;;5058144;28;20483;-81
2023/03/22 03:19:43;;;;;;;24.20;16.70;;;;;;;;;;5059383;28;20417;-81
2023/03/22 03:22:17;;;;;;;19.90;16.40;;;;;;;;;;5062397;28;20427;-82
2023/03/22 03:24:47;;;;;;;23.55;16.55;;;;;;;;;;5062414;28;20433;-81
2023/03/22 03:27:18;;;;;;;19.95;14.50;;;;;;;;;;5061622;28;20430;-81
2023/03/22 03:29:49;;;;;;;22.98;16.25;;;;;;;;;;5062523;28;20510;-80
2023/03/22 03:32:20;;;;;;;20.85;15.77;;;;;;;;;;5061706;28;20528;-80
2023/03/22 03:34:50;;;;;;;23.25;15.63;;;;;;;;;;5063175;28;20440;-80
2023/03/22 03:37:19;;;;;;;19.85;14.77;;;;;;;;;;5066449;28;20491;-80
2023/03/22 03:39:52;;;;;;;17.90;14.40;;;;;;;;;;5063438;28;20922;-79
2023/03/22 03:42:21;;;;;;;19.98;14.52;;;;;;;;;;5064846;28;20922;-80
2023/03/22 03:44:49;;;;;;;16.63;13.18;;;;;;;;;;5061094;28;20516;-80
2023/03/22 03:47:16;;;;;;;18.70;13.68;;;;;;;;;;5057913;28;20432;-80
2023/03/22 03:49:43;;;;;;;18.80;13.25;;;;;;;;;;5061150;28;20932;-80
2023/03/22 03:52:10;;;;;;;18.33;13.23;;;;;;;;;;5061546;28;20431;-80
2023/03/22 03:54:36;;;;;;;19.10;13.50;;;;;;;;;;5062841;28;20954;-82
2023/03/22 03:57:03;;;;;;;19.45;13.55;;;;;;;;;;5066833;28;20427;-80
2023/03/22 03:59:31;;;;;;;19.33;14.05;;;;;;;;;;5067342;28;20797;-80
2023/03/22 04:01:57;;;;;;;22.67;13.50;;;;;;;;;;5061429;28;20441;-82
2023/03/22 04:04:26;;;;;;;20.88;13.95;;;;;;;;;;5060205;28;20419;-82
2023/03/22 04:06:53;;;;;;;17.92;13.27;;;;;;;;;;5064470;28;20916;-82
2023/03/22 04:09:19;;;;;;;16.27;12.70;;;;;;;;;;5061414;28;20858;-80
2023/03/22 04:11:45;;;;;;;17.58;13.30;;;;;;;;;;5065567;28;20432;-82
2023/03/22 04:14:12;;;;;;;17.67;13.10;;;;;;;;;;5063113;28;20422;-80
2023/03/22 04:16:40;;;;;;;19.07;13.03;;;;;;;;;;5064340;28;20429;-80
2023/03/22 04:19:06;;;;;;;16.10;12.30;;;;;;;;;;5056621;28;20421;-80
2023/03/22 04:21:32;;;;;;;21.52;12.88;;;;;;;;;;5060028;28;20421;-80
2023/03/22 04:23:59;;;;;;;17.05;12.73;;;;;;;;;;5062914;28;20411;-80
2023/03/22 04:26:25;;;;;;;18.10;13.40;;;;;;;;;;5064516;28;20427;-82
2023/03/22 04:28:52;;;;;;;19.38;12.45;;;;;;;;;;5064261;28;20929;-82
2023/03/22 04:31:18;;;;;;;16.15;11.60;;;;;;;;;;5060521;28;20427;-80
2023/03/22 04:33:48;;;;;;;15.15;12.00;;;;;;;;;;5068663;28;20432;-82
2023/03/22 04:36:16;;;;;;;18.00;12.45;;;;;;;;;;5064047;28;20418;-80
2023/03/22 04:38:42;;;;;;;17.70;12.40;;;;;;;;;;5064286;28;20421;-82
2023/03/22 04:41:08;;;;;;;17.40;11.32;;;;;;;;;;5066444;28;20516;-82
2023/03/22 04:43:38;;;;;;;18.27;12.27;;;;;;;;;;5064374;28;20476;-82
2023/03/22 04:46:05;;;;;;;17.42;12.40;;;;;;;;;;5063713;28;20419;-82
2023/03/22 04:48:31;;;;;;;20.00;13.02;;;;;;;;;;5068651;28;20924;-82
2023/03/22 04:51:02;;;;;;;17.73;12.27;;;;;;;;;;5065966;28;20416;-82
2023/03/22 04:53:29;;;;;;;19.25;13.15;;;;;;;;;;5066799;28;20453;-80
2023/03/22 04:55:55;;;;;;;17.90;13.20;;;;;;;;;;5064372;28;20450;-80
2023/03/22 04:58:22;;;;;;;19.17;13.43;;;;;;;;;;5065262;28;20932;-81
2023/03/22 05:00:48;;;;;;;23.30;14.70;;;;;;;;;;5067722;28;20421;-82
2023/03/22 05:03:17;;;;;;;20.00;13.40;;;;;;;;;;5058499;28;20409;-80
2023/03/22 05:05:49;;;;;;;21.95;14.55;;;;;;;;;;5057300;28;20464;-82
2023/03/22 05:08:17;;;;;;;18.70;14.00;;;;;;;;;;5066079;28;20421;-81
2023/03/22 05:10:46;;;;;;;18.70;13.05;;;;;;;;;;5066820;28;20422;-81
2023/03/22 05:13:12;;;;;;;22.15;13.65;;;;;;;;;;5062654;28;20436;-81
2023/03/22 05:15:40;;;;;;;20.27;13.90;;;;;;;;;;5063860;28;20415;-82
2023/03/22 05:18:08;;;;;;;18.35;13.40;;;;;;;;;;5063061;28;22249;-81
2023/03/22 05:20:35;;;;;;;18.60;12.85;;;;;;;;;;5065969;28;20434;-82
2023/03/22 05:23:03;;;;;;;20.87;13.10;;;;;;;;;;5064358;28;20427;-81
2023/03/22 05:25:31;;;;;;;17.15;12.93;;;;;;;;;;5065869;28;20457;-81
2023/03/22 05:28:00;;;;;;;18.00;13.03;;;;;;;;;;5064447;28;20429;-82
2023/03/22 05:30:27;;;;;;;17.25;12.13;;;;;;;;;;5064367;28;20936;-81
2023/03/22 05:32:58;;;;;;;15.73;12.90;;;;;;;;;;5063436;28;20498;-81
2023/03/22 05:35:25;;;;;;;19.73;11.80;;;;;;;;;;5065092;28;20630;-81
2023/03/22 05:37:51;;;;;;;20.35;12.80;;;;;;;;;;5066010;28;20425;-81
2023/03/22 05:40:18;;;;;;;18.02;12.60;;;;;;;;;;5065805;28;20442;-81
2023/03/22 05:42:45;;;;;;;17.00;12.18;;;;;;;;;;5066793;28;20435;-81
2023/03/22 05:45:12;;;;;;;18.45;12.07;;;;;;;;;;5067224;28;20433;-81
2023/03/22 05:47:38;;;;;;;18.92;12.38;;;;;;;;;;5063372;28;20433;-81
2023/03/22 05:50:06;;;;;;;17.90;11.80;;;;;;;;;;5061219;28;20485;-81
2023/03/22 05:52:33;;;;;;;16.85;12.13;;;;;;;;;;5068159;28;20440;-81
2023/03/22 05:54:59;;;;;;;18.25;12.20;;;;;;;;;;5069356;28;20442;-80
2023/03/22 05:57:28;;;;;;;15.52;11.55;;;;;;;;;;5062601;28;20425;-81
2023/03/22 05:59:57;;;;;;;16.70;12.02;;;;;;;;;;5063454;28;20425;-81
2023/03/22 06:02:23;;;;;;;20.35;14.18;;;;;;;;;;5063615;28;20437;-81
2023/03/22 06:04:50;;;;;;;14.15;12.10;;;;;;;;;;5066183;28;20473;-81
2023/03/22 06:07:17;;;;;;;17.10;13.80;;;;;;;;;;5066285;28;20506;-81
2023/03/22 06:09:44;;;;;;;18.38;13.65;;;;;;;;;;5064411;28;20448;-81
2023/03/22 06:12:11;;;;;;;19.85;14.43;;;;;;;;;;5063052;28;20432;-81
2023/03/22 06:14:38;;;;;;;21.35;14.82;;;;;;;;;;5067194;28;20424;-81
2023/03/22 06:17:06;;;;;;;20.90;15.48;;;;;;;;;;5063650;28;20442;-81
2023/03/22 06:19:32;;;;;;;18.92;14.88;;;;;;;;;;5062246;28;20421;-81
2023/03/22 06:21:59;;;;;;;19.90;16.40;;;;;;;;;;5062746;28;20910;-81
2023/03/22 06:24:25;;;;;;;20.70;15.30;;;;;;;;;;5063620;28;20996;-81
2023/03/22 06:26:52;;;;;;;22.15;16.65;;;;;;;;;;5062827;28;20439;-81
2023/03/22 06:29:18;;;;;;;19.73;15.70;;;;;;;;;;5061130;28;20431;-81
2023/03/22 06:31:44;;;;;;;23.25;17.27;;;;;;;;;;5065041;28;20422;-81
2023/03/22 06:34:12;;;;;;;23.83;17.13;;;;;;;;;;5065199;28;20416;-81
2023/03/22 06:36:39;;;;;;;22.23;17.40;;;;;;;;;;5060769;28;20467;-82
2023/03/22 06:39:06;;;;;;;24.83;17.77;;;;;;;;;;5063579;28;20445;-81
2023/03/22 06:41:33;;;;;;;24.45;18.73;;;;;;;;;;5064257;28;20937;-81
2023/03/22 06:43:59;;;;;;;22.75;18.10;;;;;;;;;;5065177;28;20408;-81
2023/03/22 06:46:26;;;;;;;26.17;18.07;;;;;;;;;;5063538;28;20957;-81
2023/03/22 06:48:52;;;;;;;23.95;18.58;;;;;;;;;;5066471;28;20517;-81
2023/03/22 06:51:20;;;;;;;24.75;17.70;;;;;;;;;;5065375;28;20422;-81
2023/03/22 06:53:47;;;;;;;22.35;17.20;;;;;;;;;;5065616;28;20438;-81
2023/03/22 06:56:13;;;;;;;22.52;17.45;;;;;;;;;;5062100;28;20421;-81
2023/03/22 06:58:39;;;;;;;22.92;17.92;;;;;;;;;;5062026;28;20440;-81
2023/03/22 07:01:06;;;;;;;23.53;17.80;;;;;;;;;;5068017;28;20507;-81
2023/03/22 07:03:33;;;;;;;21.40;16.90;;;;;;;;;;5065169;28;20490;-81
2023/03/22 07:06:03;;;;;;;24.75;17.45;;;;;;;;;;5061766;28;20427;-81
2023/03/22 07:08:31;;;;;;;19.95;16.25;;;;;;;;;;5063732;28;20473;-81
2023/03/22 07:10:57;;;;;;;23.17;16.42;;;;;;;;;;5063485;28;21118;-81
2023/03/22 07:13:24;;;;;;;23.70;17.15;;;;;;;;;;5058640;28;20421;-81
2023/03/22 07:15:54;;;;;;;21.45;15.80;;;;;;;;;;5063263;28;20413;-81
2023/03/22 07:18:20;;;;;;;20.05;15.18;;;;;;;;;;5062613;28;20427;-81
2023/03/22 07:20:47;;;;;;;22.58;16.17;;;;;;;;;;5064697;28;20431;-81
2023/03/22 07:23:14;;;;;;;20.27;15.33;;;;;;;;;;5065107;28;20431;-81
2023/03/22 07:25:43;;;;;;;23.35;16.30;;;;;;;;;;5063249;28;20427;-81
2023/03/22 07:28:10;;;;;;;22.35;15.63;;;;;;;;;;5063015;28;20429;-81
2023/03/22 07:30:37;;;;;;;20.33;16.23;;;;;;;;;;5062778;28;20508;-81
2023/03/22 07:33:03;;;;;;;19.35;14.80;;;;;;;;;;5063179;28;20436;-81
2023/03/22 07:35:30;;;;;;;17.65;14.52;;;;;;;;;;5060870;28;20496;-81
2023/03/22 07:37:56;;;;;;;20.05;14.20;;;;;;;;;;5060632;28;20824;-81
2023/03/22 07:40:23;;;;;;;21.02;14.25;;;;;;;;;;5061956;28;20419;-81
2023/03/22 07:42:50;;;;;;;21.45;14.50;;;;;;;;;;5061016;28;20419;-81
2023/03/22 07:45:17;;;;;;;21.20;14.13;;;;;;;;;;5064515;28;20420;-81
2023/03/22 07:47:43;;;;;;;18.25;14.30;;;;;;;;;;5062319;28;20435;-81
2023/03/22 07:50:12;;;;;;;19.17;13.55;;;;;;;;;;5062581;28;20409;-81
2023/03/22 07:52:38;;;;;;;20.13;13.25;;;;;;;;;;5062812;28;20440;-81
2023/03/22 07:55:05;;;;;;;19.38;13.68;;;;;;;;;;5058642;28;20420;-81
2023/03/22 07:57:32;;;;;;;17.50;13.70;;;;;;;;;;5064813;28;20407;-81
2023/03/22 08:00:00;;;;;;;19.73;13.70;;;;;;;;;;5060697;28;20403;-81
2023/03/22 08:02:27;;;;;;;20.75;13.45;;;;;;;;;;5064314;28;20444;-81
2023/03/22 08:04:53;;;;;;;15.50;12.75;;;;;;;;;;5060657;28;20920;-81
2023/03/22 08:07:20;;;;;;;18.37;12.63;;;;;;;;;;5064031;28;20417;-82
2023/03/22 08:09:47;;;;;;;17.20;12.40;;;;;;;;;;5064137;28;20960;-81
2023/03/22 08:12:13;;;;;;;16.90;11.52;;;;;;;;;;5061801;28;20494;-81
2023/03/22 08:14:39;;;;;;;16.02;12.18;;;;;;;;;;5061892;28;20413;-81
2023/03/22 08:17:07;;;;;;;14.93;11.45;;;;;;;;;;5060923;28;20411;-81
2023/03/22 08:19:34;;;;;;;17.83;12.00;;;;;;;;;;5063195;28;20415;-82
2023/03/22 08:22:00;;;;;;;15.65;12.10;;;;;;;;;;5063220;28;20426;-81
2023/03/22 08:24:27;;;;;;;16.58;12.00;;;;;;;;;;5063069;28;20422;-81
2023/03/22 08:26:53;;;;;;;17.73;11.60;;;;;;;;;;5061122;28;20433;-81
2023/03/22 08:29:21;;;;;;;16.13;11.02;;;;;;;;;;5061518;28;20781;-81
2023/03/22 08:31:48;;;;;;;18.83;10.90;;;;;;;;;;5062948;28;20427;-81
2023/03/22 08:34:16;;;;;;;13.20;9.50;;;;;;;;;;5063248;28;20422;-81
2023/03/22 08:36:42;;;;;;;15.63;10.88;;;;;;;;;;5062377;28;20428;-81
2023/03/22 08:39:09;;;;;;;13.85;9.57;;;;;;;;;;5061385;28;20412;-81
2023/03/22 08:41:35;;;;;;;12.30;8.43;;;;;;;;;;5059467;28;20979;-81
2023/03/22 08:44:02;;;;;;;11.85;8.40;;;;;;;;;;5060540;28;20426;-81
2023/03/22 08:46:28;;;;;;;13.10;8.77;;;;;;;;;;5062387;28;20548;-81
2023/03/22 08:48:59;;;;;;;14.27;8.35;;;;;;;;;;5059064;28;20407;-81
2023/03/22 08:51:26;;;;;;;13.77;8.53;;;;;;;;;;5062775;28;20413;-81
2023/03/22 08:53:53;;;;;;;11.63;9.10;;;;;;;;;;5060979;28;20432;-81
2023/03/22 08:56:21;;;;;;;13.70;9.00;;;;;;;;;;5059073;28;20416;-81
2023/03/22 08:58:47;;;;;;;15.27;9.55;;;;;;;;;;5061924;28;20506;-81
2023/03/22 09:01:14;;;;;;;12.60;9.10;;;;;;;;;;5061041;28;20955;-81
2023/03/22 09:03:41;;;;;;;14.38;9.43;;;;;;;;;;5064268;28;20426;-81
2023/03/22 09:06:08;;;;;;;15.82;9.82;;;;;;;;;;5059102;28;20432;-81
2023/03/22 09:08:38;;;;;;;12.38;9.00;;;;;;;;;;5064226;28;20440;-81
2023/03/22 09:11:05;;;;;;;14.70;9.75;;;;;;;;;;5062104;28;20427;-81
2023/03/22 09:13:31;;;;;;;16.70;9.73;;;;;;;;;;5061862;28;20914;-81
2023/03/22 09:15:58;;;;;;;11.77;8.50;;;;;;;;;;5064208;28;20423;-81
2023/03/22 09:18:25;;;;;;;12.82;8.57;;;;;;;;;;5060199;28;20409;-81
2023/03/22 09:20:51;;;;;;;13.23;8.90;;;;;;;;;;5060852;28;20421;-81
2023/03/22 09:23:18;;;;;;;11.85;8.98;;;;;;;;;;5063346;28;20414;-81
2023/03/22 09:25:46;;;;;;;8.73;7.70;;;;;;;;;;5067311;28;20448;-81
2023/03/22 09:28:12;;;;;;;10.80;8.50;;;;;;;;;;5065539;28;20428;-81
2023/03/22 09:30:39;;;;;;;12.18;8.68;;;;;;;;;;5063201;28;20826;-81
2023/03/22 09:33:06;;;;;;;15.37;9.13;;;;;;;;;;5064600;28;20419;-81
2023/03/22 09:35:32;;;;;;;11.52;7.32;;;;;;;;;;5063905;28;20490;-81
2023/03/22 09:37:59;;;;;;;10.73;8.45;;;;;;;;;;5059749;28;20413;-81
2023/03/22 09:40:28;;;;;;;12.37;8.00;;;;;;;;;;5063276;28;20419;-81
2023/03/22 09:42:57;;;;;;;8.95;6.97;;;;;;;;;;5066361;28;20777;-81
2023/03/22 09:45:31;;;;;;;12.17;8.00;;;;;;;;;;5063563;28;20414;-81
2023/03/22 09:47:58;;;;;;;12.68;7.00;;;;;;;;;;5066035;28;21647;-81
2023/03/22 09:50:26;;;;;;;13.32;7.88;;;;;;;;;;5063321;28;20424;-81
2023/03/22 09:52:52;;;;;;;9.55;6.53;;;;;;;;;;5062338;28;20444;-81
2023/03/22 09:55:21;;;;;;;13.27;7.38;;;;;;;;;;5061309;28;20789;-81
2023/03/22 09:57:51;;;;;;;12.67;7.07;;;;;;;;;;5062126;28;20404;-81
2023/03/22 10:00:22;;;;;;;10.45;6.00;;;;;;;;;;5063176;28;20416;-81
2023/03/22 10:02:55;;;;;;;12.98;5.43;;;;;;;;;;5061231;28;20889;-81
2023/03/22 10:05:26;;;;;;;9.40;5.87;;;;;;;;;;5063825;28;20415;-81
2023/03/22 10:07:59;;;;;;;9.48;5.20;;;;;;;;;;5064587;28;20436;-81
2023/03/22 10:10:26;;;;;;;8.77;5.25;;;;;;;;;;5064053;28;20441;-81
2023/03/22 10:12:56;;;;;;;6.57;4.95;;;;;;;;;;5063711;28;20427;-81
2023/03/22 10:15:28;;;;;;;8.05;4.40;;;;;;;;;;5064711;28;21008;-81
2023/03/22 10:17:56;;;;;;;7.80;4.60;;;;;;;;;;5067288;28;20440;-81
2023/03/22 10:20:29;;;;;;;7.40;4.10;;;;;;;;;;5061800;28;20416;-81
2023/03/22 10:22:57;;;;;;;12.02;4.82;;;;;;;;;;5064401;28;20983;-81
2023/03/22 10:25:27;;;;;;;11.13;4.30;;;;;;;;;;5061289;28;20417;-81
2023/03/22 10:27:54;;;;;;;8.95;4.38;;;;;;;;;;5066039;28;20439;-81
2023/03/22 10:30:21;;;;;;;10.10;4.72;;;;;;;;;;5061438;28;21143;-81
2023/03/22 10:32:51;;;;;;;10.05;3.97;;;;;;;;;;5061815;28;20893;-82
2023/03/22 10:35:18;;;;;;;7.40;3.25;;;;;;;;;;5064424;28;20824;-81
2023/03/22 10:37:47;;;;;;;8.17;3.60;;;;;;;;;;5065151;28;20937;-81
2023/03/22 10:40:18;;;;;;;6.72;2.75;;;;;;;;;;5064212;28;20412;-81
2023/03/22 10:42:51;;;;;;;7.85;3.10;;;;;;;;;;5063598;28;20474;-81
2023/03/22 10:45:19;;;;;;;7.50;2.90;;;;;;;;;;5060617;28;20429;-81
2023/03/22 10:47:46;;;;;;;5.65;2.60;;;;;;;;;;5064584;28;20446;-81
2023/03/22 10:50:17;;;;;;;6.87;3.30;;;;;;;;;;5062289;28;20409;-81
2023/03/22 10:52:47;;;;;;;6.73;3.10;;;;;;;;;;5060233;28;20417;-81
2023/03/22 10:55:14;;;;;;;5.05;2.70;;;;;;;;;;5063559;28;20786;-81
2023/03/22 10:57:41;;;;;;;4.68;2.60;;;;;;;;;;5063716;28;20558;-81
2023/03/22 11:00:11;;;;;;;9.77;3.50;;;;;;;;;;5062143;28;20444;-81
2023/03/22 11:02:44;;;;;;;6.20;3.03;;;;;;;;;;5062808;28;20868;-81
2023/03/22 11:05:19;;;;;;;6.13;3.08;;;;;;;;;;5058853;28;20419;-82
2023/03/22 11:07:47;;;;;;;5.27;3.10;;;;;;;;;;5063123;28;20461;-82
2023/03/22 11:10:20;;;;;;;5.38;3.08;;;;;;;;;;5062595;28;20495;-80
2023/03/22 11:12:49;;;;;;;7.43;3.20;;;;;;;;;;5061337;28;20544;-80
2023/03/22 11:15:26;;;;;;;4.63;2.60;;;;;;;;;;5059605;28;20433;-80
2023/03/22 11:17:55;;;;;;;7.85;3.15;;;;;;;;;;5060384;28;20435;-80
2023/03/22 11:20:21;;;;;;;9.15;2.83;;;;;;;;;;5062238;28;20417;-80
2023/03/22 11:22:50;;;;;;;7.60;3.00;;;;;;;;;;5057796;28;20850;-80
2023/03/22 11:25:19;;;;;;;9.45;3.13;;;;;;;;;;5063681;28;20429;-82
2023/03/22 11:27:52;;;;;;;6.95;3.00;;;;;;;;;;5062478;28;20623;-80
2023/03/22 11:30:21;;;;;;;4.25;2.63;;;;;;;;;;5058261;28;20404;-80
2023/03/22 11:32:47;;;;;;;6.93;3.10;;;;;;;;;;5065025;28;20433;-80
2023/03/22 11:35:15;;;;;;;7.38;3.03;;;;;;;;;;5063882;28;20417;-82
2023/03/22 11:37:42;;;;;;;7.00;2.90;;;;;;;;;;5065564;28;20440;-80
2023/03/22 11:40:15;;;;;;;7.68;3.17;;;;;;;;;;5061886;28;20445;-79
2023/03/22 11:42:42;;;;;;;8.00;3.50;;;;;;;;;;5063592;28;20464;-80
2023/03/22 11:45:11;;;;;;;10.30;3.35;;;;;;;;;;5057310;28;20416;-80
2023/03/22 11:47:38;;;;;;;8.02;3.30;;;;;;;;;;5064498;28;20965;-79
2023/03/22 11:50:05;;;;;;;7.30;3.00;;;;;;;;;;5061166;28;20432;-80
2023/03/22 11:52:32;;;;;;;6.45;2.80;;;;;;;;;;5062534;28;20430;-82
2023/03/22 11:55:00;;;;;;;8.27;3.38;;;;;;;;;;5059897;28;20426;-79
2023/03/22 11:57:29;;;;;;;12.07;3.90;;;;;;;;;;5059183;28;20437;-80
2023/03/22 11:59:58;;;;;;;10.93;4.05;;;;;;;;;;5060726;28;20415;-81
2023/03/22 12:02:26;;;;;;;8.30;3.45;;;;;;;;;;5063895;28;20423;-81
2023/03/22 12:04:56;;;;;;;6.97;3.95;;;;;;;;;;5062312;28;20419;-81
2023/03/22 12:07:23;;;;;;;7.25;3.70;;;;;;;;;;5059485;28;20459;-82
2023/03/22 12:09:51;;;;;;;8.73;3.78;;;;;;;;;;5057626;28;20982;-81
2023/03/22 12:12:20;;;;;;;9.38;3.50;;;;;;;;;;5061181;28;20467;-80
2023/03/22 12:14:54;;;;;;;8.15;3.53;;;;;;;;;;5064579;28;20417;-80
2023/03/22 12:17:23;;;;;;;10.80;3.40;;;;;;;;;;5061814;28;20446;-80
2023/03/22 12:19:55;;;;;;;11.98;3.97;;;;;;;;;;5060513;28;20413;-80
2023/03/22 12:22:25;;;;;;;7.60;4.40;;;;;;;;;;5060240;28;20428;-80
2023/03/22 12:24:51;;;;;;;11.38;5.20;;;;;;;;;;5063299;28;20506;-80
2023/03/22 12:27:19;;;;;;;8.85;4.47;;;;;;;;;;5063139;28;20436;-82
2023/03/22 12:29:46;;;;;;;9.18;4.55;;;;;;;;;;5061018;28;20435;-82
2023/03/22 12:32:17;;;;;;;10.63;4.85;;;;;;;;;;5060166;28;20415;-80
2023/03/22 12:34:46;;;;;;;8.50;3.80;;;;;;;;;;5059845;28;20427;-80
2023/03/22 12:37:15;;;;;;;8.73;4.18;;;;;;;;;;5043554;28;20811;-80
2023/03/22 12:39:45;;;;;;;9.13;4.15;;;;;;;;;;5062596;28;20504;-80
2023/03/22 12:42:15;;;;;;;10.75;5.15;;;;;;;;;;5060551;28;20889;-82
2023/03/22 12:44:44;;;;;;;6.30;4.17;;;;;;;;;;5061701;28;20416;-82
2023/03/22 12:47:14;;;;;;;11.07;5.55;;;;;;;;;;5061384;28;20439;-82
2023/03/22 12:49:45;;;;;;;10.77;4.50;;;;;;;;;;5061063;28;20420;-81
2023/03/22 12:52:15;;;;;;;10.73;4.80;;;;;;;;;;5059014;28;20421;-81
2023/03/22 12:54:42;;;;;;;12.98;5.20;;;;;;;;;;5057468;28;20465;-81
2023/03/22 12:57:09;;;;;;;10.98;5.80;;;;;;;;;;5064589;28;20435;-81
2023/03/22 12:59:36;;;;;;;9.45;5.75;;;;;;;;;;5056115;28;20424;-81
2023/03/22 13:02:06;;;;;;;7.80;3.97;;;;;;;;;;5044964;28;20439;-82
2023/03/22 13:04:47;;;;;;;15.82;5.15;;;;;;;;;;5051289;28;20785;-81
2023/03/22 13:07:30;;;;;;;8.23;4.70;;;;;;;;;;5066408;28;20601;-81
2023/03/22 13:09:57;;;;;;;10.38;5.00;;;;;;;;;;5061735;28;20480;-81
2023/03/22 13:12:38;;;;;;;9.00;4.93;;;;;;;;;;5064447;28;20429;-81
2023/03/22 13:15:19;;;;;;;11.73;4.20;;;;;;;;;;5062793;28;20868;-81
2023/03/22 13:17:46;;;;;;;11.05;4.60;;;;;;;;;;5066092;28;20439;-81
2023/03/22 13:20:30;;;;;;;10.75;5.15;;;;;;;;;;5063259;28;20474;-81
2023/03/22 13:23:02;;;;;;;10.20;5.10;;;;;;;;;;5066498;28;20423;-81
2023/03/22 13:25:29;;;;;;;6.90;4.00;;;;;;;;;;5062175;28;20433;-81
2023/03/22 13:27:58;;;;;;;7.57;4.50;;;;;;;;;;5062533;28;20413;-81
2023/03/22 13:30:25;;;;;;;9.07;5.10;;;;;;;;;;5063604;28;20498;-81
2023/03/22 13:32:53;;;;;;;11.00;5.03;;;;;;;;;;5063287;28;20408;-81
2023/03/22 13:35:22;;;;;;;9.30;4.40;;;;;;;;;;5061503;28;20421;-81
2023/03/22 13:37:49;;;;;;;9.25;4.78;;;;;;;;;;5069130;28;20510;-81
2023/03/22 13:40:34;;;;;;;6.83;4.20;;;;;;;;;;5060420;28;20532;-81
2023/03/22 13:43:21;;;;;;;9.55;4.50;;;;;;;;;;5065548;28;20488;-81
2023/03/22 13:46:09;;;;;;;10.23;4.70;;;;;;;;;;5061702;28;20425;-81
2023/03/22 13:48:49;;;;;;;7.55;5.03;;;;;;;;;;5063435;28;20433;-81
2023/03/22 13:51:17;;;;;;;10.50;4.72;;;;;;;;;;5062274;28;20794;-81
2023/03/22 13:53:52;;;;;;;10.15;4.47;;;;;;;;;;5062525;28;20413;-81
2023/03/22 13:56:30;;;;;;;8.50;4.03;;;;;;;;;;5062228;28;20433;-80
2023/03/22 13:58:57;;;;;;;6.55;4.35;;;;;;;;;;5066240;28;20822;-81
2023/03/22 14:01:27;;;;;;;7.75;4.90;;;;;;;;;;5060990;28;20438;-81
2023/03/22 14:03:57;;;;;;;9.50;4.60;;;;;;;;;;5063677;28;20412;-82
2023/03/22 14:06:24;;;;;;;10.50;4.77;;;;;;;;;;5062580;28;20431;-80
2023/03/22 14:08:53;;;;;;;9.75;5.30;;;;;;;;;;5065521;28;20407;-80
2023/03/22 14:11:21;;;;;;;7.60;4.50;;;;;;;;;;5063314;28;20442;-79
2023/03/22 14:13:50;;;;;;;7.83;5.20;;;;;;;;;;5066969;28;20423;-80
2023/03/22 14:16:18;;;;;;;7.97;5.15;;;;;;;;;;5060894;28;20437;-81
2023/03/22 14:18:45;;;;;;;7.25;4.53;;;;;;;;;;5061558;28;20429;-81
2023/03/22 14:21:13;;;;;;;15.50;7.53;;;;;;;;;;5066837;28;20427;-81
2023/03/22 14:23:40;;;;;;;11.98;6.45;;;;;;;;;;5064400;28;20424;-81
2023/03/22 14:26:08;;;;;;;9.93;4.85;;;;;;;;;;5066475;28;20418;-81
2023/03/22 14:28:36;;;;;;;13.68;4.43;;;;;;;;;;5066226;28;20492;-80
2023/03/22 14:31:04;;;;;;;9.50;4.18;;;;;;;;;;5061996;28;20417;-81
2023/03/22 14:33:36;;;;;;;7.57;4.13;;;;;;;;;;5061399;28;20512;-81